createdAt,value
2022-08-22T00:00:34.381Z,54.90
2022-08-22T00:01:34.396Z,54.06
2022-08-22T00:02:34.448Z,54.64
2022-08-22T00:02:57.843Z,56.79
2022-08-22T00:03:34.361Z,52.48
2022-08-22T00:04:35.190Z,53.96
2022-08-22T00:05:34.340Z,52.41
2022-08-22T00:06:34.257Z,52.67
2022-08-22T00:07:34.340Z,54.87
2022-08-22T00:08:34.270Z,55.71
2022-08-22T00:09:34.270Z,53.80
2022-08-22T00:10:34.251Z,53.76
2022-08-22T00:11:34.905Z,52.56
2022-08-22T00:12:34.260Z,52.12
2022-08-22T00:13:34.246Z,53.20
2022-08-22T00:14:34.211Z,52.52
2022-08-22T00:15:43.368Z,54.58
2022-08-22T00:16:35.177Z,53.37
2022-08-22T00:17:34.247Z,55.97
2022-08-22T00:18:34.226Z,54.43
2022-08-22T00:19:34.188Z,53.92
2022-08-22T00:20:34.222Z,55.18
2022-08-22T00:21:34.167Z,54.64
2022-08-22T00:22:34.166Z,53.15
2022-08-22T00:23:34.309Z,52.53
2022-08-22T00:24:34.234Z,52.86
2022-08-22T00:25:34.252Z,53.29
2022-08-22T00:26:34.202Z,52.54
2022-08-22T00:27:34.185Z,53.50
2022-08-22T00:28:34.196Z,53.59
2022-08-22T00:29:34.212Z,52.41
2022-08-22T00:30:34.162Z,52.07
2022-08-22T00:31:34.222Z,52.72
2022-08-22T00:32:34.197Z,53.25
2022-08-22T00:33:34.186Z,52.58
2022-08-22T00:34:34.179Z,52.89
2022-08-22T00:35:34.189Z,53.74
2022-08-22T00:36:34.131Z,55.56
2022-08-22T00:37:34.135Z,53.19
2022-08-22T00:38:34.123Z,53.53
2022-08-22T00:39:34.118Z,53.64
2022-08-22T00:40:34.190Z,53.26
2022-08-22T00:41:34.107Z,52.01
2022-08-22T00:42:34.124Z,55.52
2022-08-22T00:43:34.084Z,54.64
2022-08-22T00:44:34.121Z,54.47
2022-08-22T00:45:34.041Z,52.44
2022-08-22T00:46:34.053Z,53.23
2022-08-22T00:47:34.068Z,53.54
2022-08-22T00:48:34.052Z,53.46
2022-08-22T00:49:34.022Z,52.94
2022-08-22T00:50:34.072Z,56.08
2022-08-22T00:51:34.048Z,56.04
2022-08-22T00:52:34.012Z,53.44
2022-08-22T00:53:34.009Z,53.30
2022-08-22T00:54:34.050Z,54.90
2022-08-22T00:55:34.911Z,57.55
2022-08-22T00:56:34.144Z,56.12
2022-08-22T00:57:33.985Z,55.23
2022-08-22T00:58:34.045Z,55.59
2022-08-22T00:59:33.997Z,55.01
2022-08-22T01:00:35.252Z,56.88
2022-08-22T01:01:34.073Z,54.86
2022-08-22T01:02:33.931Z,53.26
2022-08-22T01:03:33.967Z,54.52
2022-08-22T01:04:33.933Z,54.45
2022-08-22T01:05:33.941Z,54.17
2022-08-22T01:06:33.960Z,55.06
2022-08-22T01:07:38.008Z,56.57
2022-08-22T01:08:33.904Z,54.94
2022-08-22T01:09:33.914Z,54.48
2022-08-22T01:10:33.909Z,53.55
2022-08-22T01:11:33.899Z,54.51
2022-08-22T01:12:33.935Z,54.13
2022-08-22T01:13:33.861Z,53.84
2022-08-22T01:14:34.990Z,57.84
2022-08-22T01:15:33.785Z,57.69
2022-08-22T01:16:33.760Z,53.95
2022-08-22T01:17:33.964Z,55.18
2022-08-22T01:18:33.815Z,53.51
2022-08-22T01:19:33.765Z,54.23
2022-08-22T01:20:33.775Z,53.37
2022-08-22T01:21:33.819Z,54.37
2022-08-22T01:22:33.859Z,57.64
2022-08-22T01:23:33.834Z,54.13
2022-08-22T01:24:33.799Z,56.59
2022-08-22T01:25:33.798Z,53.15
2022-08-22T01:26:33.790Z,52.97
2022-08-22T01:27:33.758Z,54.37
2022-08-22T01:28:34.848Z,53.98
2022-08-22T01:29:33.744Z,54.82
2022-08-22T01:30:33.796Z,53.22
2022-08-22T01:31:33.742Z,53.52
2022-08-22T01:32:33.823Z,53.06
2022-08-22T01:33:33.806Z,53.75
2022-08-22T01:34:33.746Z,53.73
2022-08-22T01:35:33.731Z,54.21
2022-08-22T01:36:33.722Z,55.21
2022-08-22T01:37:33.693Z,54.26
2022-08-22T01:38:33.746Z,54.22
2022-08-22T01:39:33.698Z,54.21
2022-08-22T01:40:33.717Z,55.42
2022-08-22T01:41:33.682Z,55.94
2022-08-22T01:42:33.738Z,55.78
2022-08-22T01:43:51.287Z,55.73
2022-08-22T01:44:34.623Z,54.26
2022-08-22T01:45:33.563Z,54.68
2022-08-22T01:46:33.668Z,55.02
2022-08-22T01:47:36.751Z,55.83
2022-08-22T01:48:33.629Z,54.32
2022-08-22T01:49:33.663Z,54.09
2022-08-22T01:50:33.677Z,54.98
2022-08-22T01:51:33.619Z,58.14
2022-08-22T01:52:33.585Z,56.89
2022-08-22T01:53:33.590Z,57.40
2022-08-22T01:54:33.604Z,56.64
2022-08-22T01:55:33.624Z,56.88
2022-08-22T01:56:33.571Z,55.53
2022-08-22T01:57:33.571Z,58.39
2022-08-22T01:58:33.546Z,55.58
2022-08-22T01:59:34.075Z,57.39
2022-08-22T02:00:35.785Z,56.37
2022-08-22T02:01:33.555Z,55.19
2022-08-22T02:02:33.573Z,54.99
2022-08-22T02:03:33.608Z,55.87
2022-08-22T02:04:33.513Z,56.01
2022-08-22T02:05:33.612Z,55.16
2022-08-22T02:06:33.486Z,54.42
2022-08-22T02:07:33.588Z,54.58
2022-08-22T02:08:33.502Z,57.57
2022-08-22T02:09:33.471Z,55.60
2022-08-22T02:10:33.526Z,57.19
2022-08-22T02:11:33.477Z,55.63
2022-08-22T02:12:33.485Z,55.38
2022-08-22T02:13:33.471Z,55.30
2022-08-22T02:14:33.378Z,56.59
2022-08-22T02:15:33.375Z,58.09
2022-08-22T02:16:33.396Z,57.83
2022-08-22T02:17:33.351Z,58.93
2022-08-22T02:18:33.343Z,55.57
2022-08-22T02:19:33.367Z,55.46
2022-08-22T02:20:33.348Z,57.23
2022-08-22T02:21:33.395Z,56.68
2022-08-22T02:22:33.305Z,56.46
2022-08-22T02:23:33.336Z,56.88
2022-08-22T02:24:33.348Z,58.07
2022-08-22T02:25:33.350Z,57.70
2022-08-22T02:26:33.302Z,57.06
2022-08-22T02:27:33.325Z,58.27
2022-08-22T02:28:33.280Z,61.88
2022-08-22T02:29:33.223Z,58.25
2022-08-22T02:30:33.266Z,59.39
2022-08-22T02:31:33.251Z,57.88
2022-08-22T02:32:33.355Z,58.55
2022-08-22T02:33:34.049Z,57.40
2022-08-22T02:34:33.224Z,58.03
2022-08-22T02:35:33.316Z,58.14
2022-08-22T02:36:33.320Z,58.80
2022-08-22T02:37:33.313Z,59.74
2022-08-22T02:38:33.299Z,57.89
2022-08-22T02:39:33.303Z,56.35
2022-08-22T02:40:33.247Z,59.40
2022-08-22T02:41:34.287Z,59.55
2022-08-22T02:42:33.217Z,57.60
2022-08-22T02:43:33.292Z,57.72
2022-08-22T02:44:33.232Z,57.88
2022-08-22T02:45:33.152Z,57.34
2022-08-22T02:46:33.221Z,58.21
2022-08-22T02:47:33.296Z,57.86
2022-08-22T02:48:33.271Z,57.82
2022-08-22T02:49:33.245Z,58.24
2022-08-22T02:50:33.220Z,57.76
2022-08-22T02:51:33.210Z,56.40
2022-08-22T02:52:34.093Z,56.21
2022-08-22T02:53:33.327Z,59.25
2022-08-22T02:54:33.178Z,59.73
2022-08-22T02:55:33.158Z,60.45
2022-08-22T02:56:33.169Z,57.32
2022-08-22T02:57:36.132Z,56.15
2022-08-22T02:58:35.198Z,55.82
2022-08-22T02:59:33.158Z,58.70
2022-08-22T03:00:33.410Z,59.43
2022-08-22T03:01:34.117Z,58.41
2022-08-22T03:02:33.095Z,57.66
2022-08-22T03:03:33.094Z,57.57
2022-08-22T03:04:33.134Z,58.29
2022-08-22T03:05:33.159Z,57.52
2022-08-22T03:06:33.129Z,57.46
2022-08-22T03:07:33.129Z,60.32
2022-08-22T03:08:33.063Z,59.28
2022-08-22T03:09:33.074Z,61.46
2022-08-22T03:10:33.055Z,59.06
2022-08-22T03:11:33.062Z,60.66
2022-08-22T03:12:33.115Z,59.85
2022-08-22T03:13:33.043Z,59.58
2022-08-22T03:14:33.082Z,59.02
2022-08-22T03:15:33.105Z,59.85
2022-08-22T03:16:33.089Z,60.17
2022-08-22T03:17:33.030Z,59.82
2022-08-22T03:18:32.984Z,59.89
2022-08-22T03:19:33.014Z,59.71
2022-08-22T03:20:33.042Z,59.17
2022-08-22T03:21:33.022Z,58.79
2022-08-22T03:22:32.949Z,59.69
2022-08-22T03:23:32.924Z,58.73
2022-08-22T03:24:32.884Z,58.77
2022-08-22T03:25:32.963Z,59.36
2022-08-22T03:26:32.883Z,60.03
2022-08-22T03:27:33.460Z,60.07
2022-08-22T03:28:32.865Z,60.72
2022-08-22T03:29:32.837Z,60.34
2022-08-22T03:30:32.876Z,58.75
2022-08-22T03:31:32.866Z,59.55
2022-08-22T03:32:32.837Z,59.96
2022-08-22T03:33:32.853Z,60.61
2022-08-22T03:34:32.869Z,60.69
2022-08-22T03:35:32.813Z,63.25
2022-08-22T03:36:32.936Z,60.91
2022-08-22T03:37:32.913Z,61.97
2022-08-22T03:38:32.890Z,60.00
2022-08-22T03:39:32.913Z,61.54
2022-08-22T03:40:32.844Z,61.37
2022-08-22T03:41:32.887Z,60.64
2022-08-22T03:42:32.848Z,59.57
2022-08-22T03:43:32.838Z,59.33
2022-08-22T03:44:32.828Z,60.89
2022-08-22T03:45:32.740Z,61.60
2022-08-22T03:46:32.858Z,62.43
2022-08-22T03:47:32.849Z,60.42
2022-08-22T03:48:32.807Z,62.38
2022-08-22T03:49:32.811Z,61.37
2022-08-22T03:50:32.862Z,61.94
2022-08-22T03:51:32.774Z,61.16
2022-08-22T03:52:32.821Z,61.55
2022-08-22T03:53:32.807Z,61.76
2022-08-22T03:54:32.743Z,62.27
2022-08-22T03:55:32.742Z,61.63
2022-08-22T03:56:32.730Z,61.33
2022-08-22T03:57:32.823Z,61.42
2022-08-22T03:58:32.759Z,60.04
2022-08-22T03:59:32.778Z,61.07
2022-08-22T04:00:32.857Z,61.58
2022-08-22T04:01:32.713Z,61.69
2022-08-22T04:02:43.296Z,61.33
2022-08-22T04:03:33.779Z,58.45
2022-08-22T04:04:32.706Z,61.41
2022-08-22T04:05:32.685Z,60.99
2022-08-22T04:06:32.714Z,60.27
2022-08-22T04:07:33.469Z,61.27
2022-08-22T04:08:33.737Z,60.40
2022-08-22T04:09:32.647Z,62.70
2022-08-22T04:10:32.649Z,60.32
2022-08-22T04:11:32.640Z,59.30
2022-08-22T04:12:32.628Z,58.12
2022-08-22T04:13:32.657Z,58.78
2022-08-22T04:14:32.651Z,61.25
2022-08-22T04:15:32.627Z,60.88
2022-08-22T04:16:32.652Z,59.74
2022-08-22T04:17:32.648Z,59.34
2022-08-22T04:18:33.434Z,59.41
2022-08-22T04:19:32.539Z,59.16
2022-08-22T04:20:32.505Z,60.26
2022-08-22T04:21:32.501Z,59.86
2022-08-22T04:22:32.520Z,59.75
2022-08-22T04:23:32.500Z,60.39
2022-08-22T04:24:32.492Z,60.66
2022-08-22T04:25:32.491Z,60.72
2022-08-22T04:26:32.469Z,61.77
2022-08-22T04:27:32.450Z,59.73
2022-08-22T04:28:32.447Z,61.02
2022-08-22T04:29:32.712Z,61.94
2022-08-22T04:30:32.465Z,61.17
2022-08-22T04:31:32.500Z,60.71
2022-08-22T04:32:32.504Z,66.01
2022-08-22T04:33:32.512Z,61.49
2022-08-22T04:34:32.489Z,61.91
2022-08-22T04:35:32.515Z,61.70
2022-08-22T04:36:32.483Z,60.54
2022-08-22T04:37:32.456Z,60.18
2022-08-22T04:38:32.460Z,60.09
2022-08-22T04:39:32.463Z,60.34
2022-08-22T04:40:32.504Z,61.19
2022-08-22T04:41:32.476Z,60.70
2022-08-22T04:42:33.449Z,61.23
2022-08-22T04:43:33.413Z,62.96
2022-08-22T04:44:32.461Z,61.66
2022-08-22T04:45:32.397Z,61.65
2022-08-22T04:46:36.734Z,61.41
2022-08-22T04:47:32.385Z,61.02
2022-08-22T04:48:32.510Z,61.14
2022-08-22T04:49:32.373Z,60.14
2022-08-22T04:50:32.395Z,59.84
2022-08-22T04:51:32.363Z,60.85
2022-08-22T04:52:32.348Z,61.45
2022-08-22T04:53:32.337Z,60.58
2022-08-22T04:54:32.325Z,59.94
2022-08-22T04:55:32.342Z,61.14
2022-08-22T04:56:32.332Z,61.26
2022-08-22T04:57:32.345Z,60.42
2022-08-22T04:58:32.292Z,61.58
2022-08-22T04:59:33.521Z,62.05
2022-08-22T05:00:32.344Z,62.73
2022-08-22T05:01:32.345Z,61.35
2022-08-22T05:02:32.278Z,60.15
2022-08-22T05:03:32.304Z,59.77
2022-08-22T05:04:32.268Z,60.03
2022-08-22T05:05:32.276Z,60.27
2022-08-22T05:06:32.251Z,61.96
2022-08-22T05:07:35.878Z,61.60
2022-08-22T05:08:32.178Z,61.69
2022-08-22T05:09:32.159Z,61.67
2022-08-22T05:10:32.175Z,61.90
2022-08-22T05:11:32.134Z,61.12
2022-08-22T05:12:32.140Z,61.94
2022-08-22T05:13:32.143Z,61.68
2022-08-22T05:14:32.105Z,61.78
2022-08-22T05:15:32.120Z,60.93
2022-08-22T05:16:32.108Z,61.92
2022-08-22T05:17:32.225Z,60.35
2022-08-22T05:18:32.124Z,60.90
2022-08-22T05:19:32.450Z,61.92
2022-08-22T05:20:33.198Z,61.35
2022-08-22T05:21:32.062Z,59.67
2022-08-22T05:22:32.140Z,59.03
2022-08-22T05:23:32.085Z,60.65
2022-08-22T05:24:32.161Z,59.79
2022-08-22T05:25:32.171Z,60.94
2022-08-22T05:26:32.154Z,61.24
2022-08-22T05:27:32.115Z,60.79
2022-08-22T05:28:32.141Z,60.65
2022-08-22T05:29:32.116Z,62.55
2022-08-22T05:30:32.165Z,60.48
2022-08-22T05:31:32.115Z,61.30
2022-08-22T05:34:39.853Z,60.61
2022-08-22T05:35:39.878Z,61.65
2022-08-22T05:36:39.900Z,59.72
2022-08-22T05:37:39.826Z,61.30
2022-08-22T05:38:39.909Z,58.56
2022-08-22T05:39:39.922Z,58.99
2022-08-22T05:40:39.853Z,59.31
2022-08-22T05:41:39.851Z,59.08
2022-08-22T05:42:39.818Z,59.40
2022-08-22T05:43:39.815Z,59.25
2022-08-22T05:44:39.866Z,58.98
2022-08-22T05:45:39.797Z,59.16
2022-08-22T05:46:39.906Z,58.84
2022-08-22T05:47:39.841Z,59.20
2022-08-22T05:48:39.844Z,58.05
2022-08-22T05:49:39.888Z,58.85
2022-08-22T05:50:39.843Z,58.90
2022-08-22T05:51:39.857Z,58.16
2022-08-22T05:52:39.857Z,58.43
2022-08-22T05:53:39.810Z,57.44
2022-08-22T05:54:39.863Z,58.18
2022-08-22T05:55:39.834Z,59.29
2022-08-22T05:56:39.814Z,57.95
2022-08-22T05:57:39.831Z,59.43
2022-08-22T05:58:39.854Z,59.26
2022-08-22T05:59:39.769Z,60.56
2022-08-22T06:00:39.858Z,59.28
2022-08-22T06:01:39.852Z,58.58
2022-08-22T06:02:39.855Z,58.13
2022-08-22T06:03:39.754Z,58.98
2022-08-22T06:04:39.796Z,57.75
2022-08-22T06:05:39.775Z,60.17
2022-08-22T06:06:39.713Z,58.77
2022-08-22T06:07:39.723Z,60.61
2022-08-22T06:08:39.689Z,59.29
2022-08-22T06:09:39.616Z,60.12
2022-08-22T06:10:39.694Z,59.43
2022-08-22T06:11:39.635Z,59.84
2022-08-22T06:12:39.625Z,62.03
2022-08-22T06:13:41.223Z,59.85
2022-08-22T06:14:39.578Z,58.68
2022-08-22T06:15:40.677Z,58.25
2022-08-22T06:16:39.579Z,58.74
2022-08-22T06:17:40.578Z,58.95
2022-08-22T06:18:39.553Z,60.59
2022-08-22T06:19:39.573Z,59.07
2022-08-22T06:20:39.519Z,58.27
2022-08-22T06:21:39.787Z,58.16
2022-08-22T06:22:39.494Z,58.40
2022-08-22T06:23:40.539Z,59.21
2022-08-22T06:24:39.539Z,59.14
2022-08-22T06:25:39.738Z,59.46
2022-08-22T06:26:39.683Z,58.69
2022-08-22T06:27:39.574Z,58.35
2022-08-22T06:28:54.780Z,58.52
2022-08-22T06:29:40.502Z,56.85
2022-08-22T06:30:39.586Z,56.77
2022-08-22T06:31:39.601Z,56.98
2022-08-22T06:32:58.805Z,57.81
2022-08-22T06:33:43.293Z,56.82
2022-08-22T06:34:40.506Z,56.46
2022-08-22T06:35:39.534Z,57.19
2022-08-22T06:36:39.512Z,58.03
2022-08-22T06:37:39.916Z,58.79
2022-08-22T06:38:39.581Z,57.73
2022-08-22T06:39:39.507Z,58.72
2022-08-22T06:40:39.553Z,56.48
2022-08-22T06:41:39.493Z,58.82
2022-08-22T06:42:39.593Z,58.96
2022-08-22T06:43:39.492Z,57.81
2022-08-22T06:44:39.503Z,57.42
2022-08-22T06:45:39.388Z,58.20
2022-08-22T06:46:39.512Z,57.72
2022-08-22T06:47:39.473Z,57.47
2022-08-22T06:48:39.566Z,57.03
2022-08-22T06:49:39.459Z,56.70
2022-08-22T06:50:39.426Z,57.62
2022-08-22T06:51:39.408Z,56.15
2022-08-22T06:52:39.418Z,58.86
2022-08-22T06:53:42.347Z,59.53
2022-08-22T06:54:40.381Z,57.74
2022-08-22T06:55:39.407Z,55.27
2022-08-22T06:56:39.398Z,57.59
2022-08-22T06:57:39.387Z,57.71
2022-08-22T06:58:39.397Z,57.51
2022-08-22T06:59:39.385Z,57.81
2022-08-22T07:00:39.352Z,57.27
2022-08-22T07:01:39.405Z,58.05
2022-08-22T07:02:39.363Z,57.99
2022-08-22T07:03:39.405Z,56.37
2022-08-22T07:04:39.385Z,57.35
2022-08-22T07:05:39.394Z,58.96
2022-08-22T07:06:39.309Z,57.76
2022-08-22T07:07:39.388Z,55.71
2022-08-22T07:08:39.370Z,56.77
2022-08-22T07:09:39.347Z,57.98
2022-08-22T07:10:39.302Z,57.42
2022-08-22T07:11:39.301Z,57.91
2022-08-22T07:12:39.256Z,56.26
2022-08-22T07:13:39.278Z,56.70
2022-08-22T07:14:39.427Z,57.57
2022-08-22T07:15:39.278Z,57.47
2022-08-22T07:16:39.287Z,56.49
2022-08-22T07:17:40.722Z,54.20
2022-08-22T07:18:40.255Z,54.33
2022-08-22T07:19:40.264Z,55.86
2022-08-22T07:20:39.243Z,55.55
2022-08-22T07:21:39.228Z,57.21
2022-08-22T07:22:39.092Z,57.25
2022-08-22T07:23:39.120Z,54.93
2022-08-22T07:24:39.109Z,55.36
2022-08-22T07:25:39.112Z,56.00
2022-08-22T07:26:39.064Z,62.94
2022-08-22T07:27:39.093Z,58.30
2022-08-22T07:28:51.207Z,57.54
2022-08-22T07:29:40.033Z,55.22
2022-08-22T07:30:39.093Z,57.83
2022-08-22T07:31:39.041Z,55.22
2022-08-22T07:32:39.039Z,63.70
2022-08-22T07:33:39.028Z,54.30
2022-08-22T07:34:38.974Z,56.53
2022-08-22T07:35:39.080Z,57.39
2022-08-22T07:36:39.015Z,55.78
2022-08-22T07:37:40.022Z,56.15
2022-08-22T07:38:39.022Z,61.40
2022-08-22T07:39:39.129Z,55.47
2022-08-22T07:40:39.318Z,55.76
2022-08-22T07:41:39.062Z,62.31
2022-08-22T07:42:39.041Z,55.34
2022-08-22T07:43:39.020Z,55.32
2022-08-22T07:44:38.949Z,54.78
2022-08-22T07:45:38.942Z,54.01
2022-08-22T07:46:39.029Z,53.52
2022-08-22T07:47:39.022Z,55.57
2022-08-22T07:48:59.323Z,54.27
2022-08-22T07:49:40.918Z,52.51
2022-08-22T07:50:39.913Z,55.41
2022-08-22T07:51:39.099Z,54.90
2022-08-22T07:52:38.986Z,52.38
2022-08-22T07:53:39.063Z,55.23
2022-08-22T07:54:38.959Z,54.33
2022-08-22T07:55:49.516Z,54.83
2022-08-22T07:56:39.885Z,52.33
2022-08-22T07:57:38.939Z,52.98
2022-08-22T07:58:38.928Z,54.81
2022-08-22T07:59:38.921Z,55.89
2022-08-22T08:00:38.965Z,55.14
2022-08-22T08:01:38.975Z,55.58
2022-08-22T08:02:38.976Z,55.26
2022-08-22T08:03:38.940Z,55.32
2022-08-22T08:04:40.554Z,52.07
2022-08-22T08:05:39.945Z,54.75
2022-08-22T08:06:38.934Z,54.46
2022-08-22T08:07:38.975Z,52.54
2022-08-22T08:08:38.896Z,55.44
2022-08-22T08:09:38.898Z,51.50
2022-08-22T08:10:38.873Z,51.30
2022-08-22T08:11:38.872Z,50.43
2022-08-22T08:12:38.951Z,50.64
2022-08-22T08:13:38.829Z,58.95
2022-08-22T08:14:38.916Z,49.97
2022-08-22T08:15:38.826Z,53.03
2022-08-22T08:16:38.901Z,53.06
2022-08-22T08:17:38.794Z,52.65
2022-08-22T08:18:38.819Z,51.90
2022-08-22T08:19:38.795Z,53.51
2022-08-22T08:20:38.764Z,60.83
2022-08-22T08:21:38.817Z,55.60
2022-08-22T08:22:38.810Z,51.23
2022-08-22T08:23:39.664Z,56.19
2022-08-22T08:24:40.060Z,54.83
2022-08-22T08:25:38.748Z,53.75
2022-08-22T08:26:38.714Z,54.43
2022-08-22T08:27:38.799Z,51.71
2022-08-22T08:28:38.810Z,50.83
2022-08-22T08:29:38.684Z,50.58
2022-08-22T08:30:38.740Z,53.94
2022-08-22T08:31:42.642Z,53.36
2022-08-22T08:32:39.726Z,52.67
2022-08-22T08:33:38.746Z,51.37
2022-08-22T08:34:38.728Z,52.70
2022-08-22T08:36:02.823Z,51.05
2022-08-22T08:36:39.577Z,48.48
2022-08-22T08:37:38.761Z,48.88
2022-08-22T08:38:38.635Z,51.00
2022-08-22T08:39:38.726Z,52.47
2022-08-22T08:40:38.637Z,50.97
2022-08-22T08:41:39.726Z,56.63
2022-08-22T08:42:38.511Z,54.05
2022-08-22T08:43:38.515Z,51.45
2022-08-22T08:44:38.720Z,56.64
2022-08-22T08:45:38.560Z,56.56
2022-08-22T08:46:38.629Z,54.82
2022-08-22T08:48:39.502Z,51.30
2022-08-22T08:50:39.524Z,52.84
2022-08-22T08:51:38.506Z,50.54
2022-08-22T08:52:38.437Z,52.91
2022-08-22T08:53:38.442Z,49.77
2022-08-22T08:54:38.426Z,54.06
2022-08-22T08:55:38.425Z,54.24
2022-08-22T08:56:38.431Z,51.64
2022-08-22T08:57:38.437Z,50.90
2022-08-22T08:58:38.432Z,50.27
2022-08-22T08:59:40.410Z,51.95
2022-08-22T09:00:39.467Z,52.13
2022-08-22T09:01:38.469Z,53.58
2022-08-22T09:02:38.555Z,52.88
2022-08-22T09:03:38.397Z,54.24
2022-08-22T09:04:38.364Z,62.14
2022-08-22T09:05:38.561Z,61.19
2022-08-22T09:06:38.491Z,60.20
2022-08-22T09:07:38.439Z,55.22
2022-08-22T09:08:38.432Z,59.99
2022-08-22T09:09:38.470Z,53.65
2022-08-22T09:10:38.440Z,58.20
2022-08-22T09:11:38.490Z,52.01
2022-08-22T09:12:38.419Z,50.81
2022-08-22T09:13:40.685Z,52.30
2022-08-22T09:14:38.408Z,61.98
2022-08-22T09:15:38.903Z,56.00
2022-08-22T09:16:38.408Z,56.44
2022-08-22T09:17:39.391Z,52.03
2022-08-22T09:18:38.355Z,54.19
2022-08-22T09:19:38.378Z,53.15
2022-08-22T09:20:38.373Z,51.50
2022-08-22T09:21:38.433Z,55.66
2022-08-22T09:22:50.629Z,52.32
2022-08-22T09:23:39.250Z,51.75
2022-08-22T09:24:38.335Z,51.48
2022-08-22T09:25:40.018Z,50.37
2022-08-22T09:26:38.314Z,53.85
2022-08-22T09:27:38.391Z,58.62
2022-08-22T09:28:38.298Z,49.60
2022-08-22T09:29:55.248Z,48.56
2022-08-22T09:30:39.192Z,52.59
2022-08-22T09:32:39.344Z,58.94
2022-08-22T09:33:38.286Z,51.20
2022-08-22T09:34:38.255Z,48.96
2022-08-22T09:35:38.234Z,49.77
2022-08-22T09:36:38.224Z,54.61
2022-08-22T09:37:38.264Z,57.36
2022-08-22T09:38:38.306Z,52.63
2022-08-22T09:39:38.276Z,51.57
2022-08-22T09:40:15.238Z,50.41
2022-08-22T09:40:16.219Z,50.59
2022-08-22T09:40:38.262Z,52.82
2022-08-22T09:41:38.206Z,60.38
2022-08-22T09:42:38.214Z,50.45
2022-08-22T09:43:38.333Z,49.36
2022-08-22T09:44:39.708Z,52.54
2022-08-22T09:45:38.092Z,50.98
2022-08-22T09:46:38.158Z,54.22
2022-08-22T09:47:39.298Z,49.71
2022-08-22T09:48:38.519Z,49.63
2022-08-22T09:49:38.154Z,48.75
2022-08-22T09:50:38.120Z,52.34
2022-08-22T09:51:38.111Z,49.79
2022-08-22T09:52:38.148Z,52.19
2022-08-22T09:53:38.178Z,50.24
2022-08-22T09:54:38.203Z,51.04
2022-08-22T09:55:38.076Z,52.87
2022-08-22T09:56:38.128Z,53.84
2022-08-22T09:57:38.124Z,49.46
2022-08-22T09:58:41.517Z,48.39
2022-08-22T09:59:39.106Z,48.58
2022-08-22T10:00:37.964Z,50.59
2022-08-22T10:01:37.983Z,53.98
2022-08-22T10:02:43.675Z,55.85
2022-08-22T10:03:38.927Z,48.09
2022-08-22T10:04:37.939Z,47.61
2022-08-22T10:05:43.627Z,48.12
2022-08-22T10:06:38.951Z,48.77
2022-08-22T10:07:37.918Z,49.33
2022-08-22T10:08:37.948Z,54.49
2022-08-22T10:09:37.926Z,51.81
2022-08-22T10:10:37.991Z,48.08
2022-08-22T10:11:38.880Z,57.64
2022-08-22T10:12:37.881Z,50.06
2022-08-22T10:13:37.948Z,49.43
2022-08-22T10:14:37.863Z,50.51
2022-08-22T10:15:37.923Z,50.31
2022-08-22T10:16:37.844Z,48.70
2022-08-22T10:17:40.907Z,57.41
2022-08-22T10:18:37.837Z,56.50
2022-08-22T10:19:38.814Z,64.70
2022-08-22T10:20:37.831Z,65.97
2022-08-22T10:21:37.981Z,58.46
2022-08-22T10:22:37.904Z,58.35
2022-08-22T10:23:37.903Z,54.25
2022-08-22T10:24:44.133Z,56.76
2022-08-22T10:25:42.144Z,47.58
2022-08-22T10:26:38.927Z,52.17
2022-08-22T10:27:41.218Z,49.60
2022-08-22T10:28:37.782Z,49.47
2022-08-22T10:29:37.864Z,52.29
2022-08-22T10:30:37.867Z,47.53
2022-08-22T10:31:57.060Z,53.11
2022-08-22T10:32:38.764Z,45.99
2022-08-22T10:33:37.851Z,48.57
2022-08-22T10:34:37.868Z,51.62
2022-08-22T10:35:37.857Z,50.37
2022-08-22T10:36:37.849Z,50.07
2022-08-22T10:37:39.578Z,45.54
2022-08-22T10:38:46.339Z,48.73
2022-08-22T10:39:38.747Z,47.67
2022-08-22T10:40:38.794Z,52.15
2022-08-22T10:41:37.795Z,48.48
2022-08-22T10:42:37.818Z,48.69
2022-08-22T10:43:37.829Z,48.98
2022-08-22T10:44:37.755Z,48.74
2022-08-22T10:45:37.667Z,47.69
2022-08-22T10:46:37.726Z,51.07
2022-08-22T10:47:37.820Z,50.29
2022-08-22T10:48:38.738Z,50.44
2022-08-22T10:49:37.766Z,51.35
2022-08-22T10:50:37.727Z,47.95
2022-08-22T10:51:37.770Z,47.41
2022-08-22T10:52:37.725Z,48.75
2022-08-22T10:53:37.669Z,45.58
2022-08-22T10:54:37.704Z,49.89
2022-08-22T10:55:37.725Z,47.08
2022-08-22T10:56:37.671Z,46.93
2022-08-22T10:57:37.695Z,47.08
2022-08-22T10:58:37.780Z,47.08
2022-08-22T10:59:37.665Z,49.27
2022-08-22T11:00:37.729Z,46.79
2022-08-22T11:01:42.143Z,44.80
2022-08-22T11:02:37.627Z,47.73
2022-08-22T11:03:37.831Z,54.98
2022-08-22T11:04:37.608Z,69.80
2022-08-22T11:05:37.613Z,45.66
2022-08-22T11:06:37.581Z,47.19
2022-08-22T11:07:37.566Z,47.64
2022-08-22T11:08:37.702Z,46.88
2022-08-22T11:09:37.579Z,46.59
2022-08-22T11:10:37.621Z,47.53
2022-08-22T12:29:15.614Z,50.18
2022-08-22T12:30:14.082Z,51.53
2022-08-22T12:31:12.551Z,50.31
2022-08-22T12:32:12.516Z,45.18
2022-08-22T12:33:13.121Z,45.43
2022-08-22T12:34:12.495Z,44.63
2022-08-22T12:35:13.789Z,46.32
2022-08-22T12:36:18.171Z,48.53
2022-08-22T12:37:13.601Z,41.29
2022-08-22T12:38:29.080Z,43.62
2022-08-22T12:39:13.496Z,51.19
2022-08-22T12:40:12.513Z,40.54
2022-08-22T12:41:12.454Z,43.94
2022-08-22T12:42:12.458Z,44.20
2022-08-22T12:43:12.554Z,47.67
2022-08-22T12:44:16.492Z,44.59
2022-08-22T12:45:13.448Z,39.72
2022-08-22T12:46:13.304Z,41.20
2022-08-22T12:47:12.509Z,42.95
2022-08-22T12:48:12.532Z,45.19
2022-08-22T12:49:12.516Z,48.03
2022-08-22T12:50:12.734Z,47.32
2022-08-22T12:51:17.267Z,48.93
2022-08-22T12:52:13.392Z,51.83
2022-08-22T12:53:14.977Z,49.01
2022-08-22T12:54:13.392Z,45.92
2022-08-22T12:55:12.479Z,49.25
2022-08-22T12:56:12.434Z,47.74
2022-08-22T12:57:23.704Z,48.95
2022-08-22T12:58:13.353Z,47.04
2022-08-22T12:59:12.488Z,48.27
2022-08-22T13:00:12.392Z,50.27
2022-08-22T13:01:12.449Z,48.71
2022-08-22T13:02:12.428Z,46.26
2022-08-22T13:03:12.381Z,50.89
2022-08-22T13:04:12.394Z,48.76
2022-08-22T13:05:13.371Z,49.29
2022-08-22T13:06:15.147Z,44.88
2022-08-22T13:07:12.438Z,42.12
2022-08-22T13:08:12.350Z,42.97
2022-08-22T13:09:12.401Z,50.08
2022-08-22T13:10:12.385Z,49.63
2022-08-22T13:11:15.191Z,42.70
2022-08-22T13:12:13.252Z,45.85
2022-08-22T13:13:13.338Z,45.72
2022-08-22T13:14:19.624Z,45.84
2022-08-22T13:15:13.350Z,44.17
2022-08-22T13:16:12.358Z,41.06
2022-08-22T13:17:24.091Z,42.11
2022-08-22T13:18:29.253Z,43.51
2022-08-22T13:19:14.573Z,44.63
2022-08-22T13:20:12.325Z,45.01
2022-08-22T13:21:15.065Z,45.63
2022-08-22T13:22:13.284Z,44.17
2022-08-22T13:23:12.699Z,39.75
2022-08-22T13:24:12.232Z,45.09
2022-08-22T13:25:12.279Z,42.72
2022-08-22T13:26:12.234Z,42.22
2022-08-22T13:27:12.255Z,45.57
2022-08-22T13:28:12.282Z,45.11
2022-08-22T13:29:27.550Z,45.03
2022-08-22T13:30:14.171Z,45.36
2022-08-22T13:31:12.212Z,48.47
2022-08-22T13:32:12.201Z,49.86
2022-08-22T13:33:12.405Z,51.09
2022-08-22T13:34:12.249Z,49.43
2022-08-22T13:35:12.163Z,48.84
2022-08-22T13:36:12.155Z,48.08
2022-08-22T13:37:12.161Z,49.20
2022-08-22T13:38:12.498Z,49.17
2022-08-22T13:39:12.233Z,42.95
2022-08-22T13:40:12.266Z,44.57
2022-08-22T13:41:12.188Z,46.14
2022-08-22T13:42:27.713Z,44.00
2022-08-22T13:43:13.151Z,53.79
2022-08-22T13:44:12.151Z,45.09
2022-08-22T13:45:12.114Z,48.05
2022-08-22T13:46:12.078Z,46.90
2022-08-22T13:47:14.668Z,47.53
2022-08-22T13:48:13.007Z,44.98
2022-08-22T13:49:12.047Z,44.77
2022-08-22T13:50:11.987Z,43.51
2022-08-22T13:51:13.142Z,46.26
2022-08-22T13:52:28.771Z,45.71
2022-08-22T13:53:13.050Z,44.43
2022-08-22T13:54:12.012Z,43.15
2022-08-22T13:55:12.465Z,46.62
2022-08-22T13:56:15.801Z,47.25
2022-08-22T13:57:11.945Z,52.36
2022-08-22T13:58:12.141Z,48.06
2022-08-22T13:59:11.902Z,47.07
2022-08-22T14:00:12.309Z,49.14
2022-08-22T14:01:12.950Z,44.63
2022-08-22T14:02:17.979Z,43.72
2022-08-22T14:03:12.883Z,44.46
2022-08-22T14:04:21.869Z,47.62
2022-08-22T14:05:12.927Z,50.06
2022-08-22T14:06:37.316Z,45.95
2022-08-22T14:07:12.866Z,49.86
2022-08-22T14:08:12.577Z,47.59
2022-08-22T14:09:11.837Z,48.99
2022-08-22T14:10:14.972Z,49.35
2022-08-22T14:11:11.880Z,50.43
2022-08-22T14:12:12.667Z,48.93